sensor_id;sensor_type;location;lat;lon;timestamp;pressure;altitude;pressure_sealevel;temperature;humidity
56514;BME280;62152;52.078;8.414;2022-08-21T00:00:15;100238.84;;;23.23;48.63
56514;BME280;62152;52.078;8.414;2022-08-21T00:02:02;100238.84;;;23.23;48.50
56514;BME280;62152;52.078;8.414;2022-08-21T00:03:48;100229.38;;;23.24;48.75
56514;BME280;62152;52.078;8.414;2022-08-21T00:05:39;100237.66;;;23.24;48.72
56514;BME280;62152;52.078;8.414;2022-08-21T00:07:26;100227.78;;;23.23;48.73
56514;BME280;62152;52.078;8.414;2022-08-21T00:09:11;100222.25;;;23.23;48.73
56514;BME280;62152;52.078;8.414;2022-08-21T00:10:57;100221.88;;;23.20;48.75
56514;BME280;62152;52.078;8.414;2022-08-21T00:12:45;100221.88;;;23.20;48.95
56514;BME280;62152;52.078;8.414;2022-08-21T00:14:33;100220.28;;;23.19;48.86
56514;BME280;62152;52.078;8.414;2022-08-21T00:16:19;100219.09;;;23.20;48.69
56514;BME280;62152;52.078;8.414;2022-08-21T00:18:05;100217.50;;;23.19;48.79
56514;BME280;62152;52.078;8.414;2022-08-21T00:19:52;100219.50;;;23.19;48.54
56514;BME280;62152;52.078;8.414;2022-08-21T00:21:37;100218.69;;;23.18;49.05
56514;BME280;62152;52.078;8.414;2022-08-21T00:23:22;100227.00;;;23.18;49.02
56514;BME280;62152;52.078;8.414;2022-08-21T00:25:08;100229.78;;;23.18;48.87
56514;BME280;62152;52.078;8.414;2022-08-21T00:26:54;100228.19;;;23.17;48.56
56514;BME280;62152;52.078;8.414;2022-08-21T00:28:43;100234.53;;;23.14;48.59
56514;BME280;62152;52.078;8.414;2022-08-21T00:30:31;100227.44;;;23.13;48.77
56514;BME280;62152;52.078;8.414;2022-08-21T00:32:20;100230.56;;;23.12;48.55
56514;BME280;62152;52.078;8.414;2022-08-21T00:34:06;100233.75;;;23.10;48.99
56514;BME280;62152;52.078;8.414;2022-08-21T00:35:51;100221.09;;;23.06;48.79
56514;BME280;62152;52.078;8.414;2022-08-21T00:37:37;100231.38;;;23.05;48.92
56514;BME280;62152;52.078;8.414;2022-08-21T00:39:22;100233.00;;;23.06;48.88
56514;BME280;62152;52.078;8.414;2022-08-21T00:41:09;100226.25;;;23.04;49.11
56514;BME280;62152;52.078;8.414;2022-08-21T00:42:55;100233.38;;;23.05;48.81
56514;BME280;62152;52.078;8.414;2022-08-21T00:44:47;100232.16;;;23.06;49.05
56514;BME280;62152;52.078;8.414;2022-08-21T00:46:33;100226.25;;;23.07;49.38
56514;BME280;62152;52.078;8.414;2022-08-21T00:48:18;100225.44;;;23.10;49.42
56514;BME280;62152;52.078;8.414;2022-08-21T00:50:07;100218.72;;;23.11;49.35
56514;BME280;62152;52.078;8.414;2022-08-21T00:51:58;100219.91;;;23.10;49.46
56514;BME280;62152;52.078;8.414;2022-08-21T00:53:46;100218.72;;;23.11;49.38
56514;BME280;62152;52.078;8.414;2022-08-21T00:55:33;100230.19;;;23.13;49.63
56514;BME280;62152;52.078;8.414;2022-08-21T00:57:25;100228.22;;;23.14;49.86
56514;BME280;62152;52.078;8.414;2022-08-21T00:59:13;100231.38;;;23.12;49.99
56514;BME280;62152;52.078;8.414;2022-08-21T01:01:04;100223.88;;;23.09;50.01
56514;BME280;62152;52.078;8.414;2022-08-21T01:02:50;100225.03;;;23.12;49.93
56514;BME280;62152;52.078;8.414;2022-08-21T01:04:35;100218.34;;;23.09;49.80
56514;BME280;62152;52.078;8.414;2022-08-21T01:06:20;100225.84;;;23.12;49.89
56514;BME280;62152;52.078;8.414;2022-08-21T01:08:07;100223.06;;;23.12;49.82
56514;BME280;62152;52.078;8.414;2022-08-21T01:09:53;100224.25;;;23.15;50.07
56514;BME280;62152;52.078;8.414;2022-08-21T01:11:39;100221.50;;;23.11;49.73
56514;BME280;62152;52.078;8.414;2022-08-21T01:13:25;100230.19;;;23.13;49.72
56514;BME280;62152;52.078;8.414;2022-08-21T01:15:14;100230.97;;;23.10;49.89
56514;BME280;62152;52.078;8.414;2022-08-21T01:17:04;100230.97;;;23.10;49.79
56514;BME280;62152;52.078;8.414;2022-08-21T01:18:51;100223.06;;;23.12;49.71
56514;BME280;62152;52.078;8.414;2022-08-21T01:20:38;100227.81;;;23.12;49.85
56514;BME280;62152;52.078;8.414;2022-08-21T01:22:29;100226.66;;;23.13;49.97
56514;BME280;62152;52.078;8.414;2022-08-21T01:24:15;100215.59;;;23.13;49.78
56514;BME280;62152;52.078;8.414;2022-08-21T01:26:00;100219.13;;;23.13;49.97
56514;BME280;62152;52.078;8.414;2022-08-21T01:27:45;100221.91;;;23.13;49.88
56514;BME280;62152;52.078;8.414;2022-08-21T01:29:36;100214.38;;;23.10;49.77
56514;BME280;62152;52.078;8.414;2022-08-21T01:31:26;100216.38;;;23.10;49.79
56514;BME280;62152;52.078;8.414;2022-08-21T01:33:13;100215.56;;;23.06;50.13
56514;BME280;62152;52.078;8.414;2022-08-21T01:34:58;100216.38;;;23.06;49.90
56514;BME280;62152;52.078;8.414;2022-08-21T01:36:44;100221.09;;;23.06;49.91
56514;BME280;62152;52.078;8.414;2022-08-21T01:38:33;100213.63;;;23.06;49.74
56514;BME280;62152;52.078;8.414;2022-08-21T01:40:19;100218.75;;;23.08;49.89
56514;BME280;62152;52.078;8.414;2022-08-21T01:42:04;100223.50;;;23.07;49.84
56514;BME280;62152;52.078;8.414;2022-08-21T01:43:50;100223.50;;;23.07;49.69
56514;BME280;62152;52.078;8.414;2022-08-21T01:45:35;100219.53;;;23.08;49.78
56514;BME280;62152;52.078;8.414;2022-08-21T01:47:20;100229.03;;;23.07;49.55
56514;BME280;62152;52.078;8.414;2022-08-21T01:49:06;100220.72;;;23.07;49.62
56514;BME280;62152;52.078;8.414;2022-08-21T01:50:51;100229.03;;;23.07;49.90
56514;BME280;62152;52.078;8.414;2022-08-21T01:52:36;100214.41;;;23.07;50.09
56514;BME280;62152;52.078;8.414;2022-08-21T01:54:24;100222.31;;;23.08;49.50
56514;BME280;62152;52.078;8.414;2022-08-21T01:56:13;100222.72;;;23.07;49.83
56514;BME280;62152;52.078;8.414;2022-08-21T01:57:59;100219.94;;;23.07;49.62
56514;BME280;62152;52.078;8.414;2022-08-21T01:59:44;100217.56;;;23.05;49.77
56514;BME280;62152;52.078;8.414;2022-08-21T02:01:29;100220.31;;;23.05;49.73
56514;BME280;62152;52.078;8.414;2022-08-21T02:03:14;100222.31;;;23.05;49.56
56514;BME280;62152;52.078;8.414;2022-08-21T02:05:00;100222.31;;;23.05;49.60
56514;BME280;62152;52.078;8.414;2022-08-21T02:06:45;100221.50;;;23.04;49.43
56514;BME280;62152;52.078;8.414;2022-08-21T02:08:31;100217.19;;;23.00;49.59
56514;BME280;62152;52.078;8.414;2022-08-21T02:10:21;100215.59;;;23.02;49.57
56514;BME280;62152;52.078;8.414;2022-08-21T02:12:09;100224.69;;;23.03;49.51
56514;BME280;62152;52.078;8.414;2022-08-21T02:13:54;100217.97;;;23.04;49.79
56514;BME280;62152;52.078;8.414;2022-08-21T02:15:39;100218.75;;;23.04;49.57
56514;BME280;62152;52.078;8.414;2022-08-21T02:17:24;100213.63;;;23.03;49.69
56514;BME280;62152;52.078;8.414;2022-08-21T02:19:11;100216.78;;;23.01;49.57
56514;BME280;62152;52.078;8.414;2022-08-21T02:20:58;100217.97;;;23.00;49.73
56514;BME280;62152;52.078;8.414;2022-08-21T02:22:43;100216.41;;;22.99;49.66
56514;BME280;62152;52.078;8.414;2022-08-21T02:24:28;100209.28;;;22.98;49.47
56514;BME280;62152;52.078;8.414;2022-08-21T02:26:16;100205.34;;;22.99;49.75
56514;BME280;62152;52.078;8.414;2022-08-21T02:28:05;100210.88;;;22.99;49.88
56514;BME280;62152;52.078;8.414;2022-08-21T02:29:50;100206.50;;;22.98;49.59
56514;BME280;62152;52.078;8.414;2022-08-21T02:31:35;100205.72;;;22.98;49.52
56514;BME280;62152;52.078;8.414;2022-08-21T02:33:20;100205.34;;;22.99;49.79
56514;BME280;62152;52.078;8.414;2022-08-21T02:35:07;100199.81;;;22.99;49.42
56514;BME280;62152;52.078;8.414;2022-08-21T02:36:53;100201.75;;;22.99;49.71
56514;BME280;62152;52.078;8.414;2022-08-21T02:38:40;100203.75;;;22.98;49.59
56514;BME280;62152;52.078;8.414;2022-08-21T02:40:28;100206.13;;;22.96;49.67
56514;BME280;62152;52.078;8.414;2022-08-21T02:42:18;100213.22;;;22.97;49.57
56514;BME280;62152;52.078;8.414;2022-08-21T02:44:03;100204.56;;;22.95;49.76
56514;BME280;62152;52.078;8.414;2022-08-21T02:45:50;100212.84;;;22.95;49.58
56514;BME280;62152;52.078;8.414;2022-08-21T02:47:35;100208.50;;;22.94;49.53
56514;BME280;62152;52.078;8.414;2022-08-21T02:49:21;100198.66;;;22.86;49.66
56514;BME280;62152;52.078;8.414;2022-08-21T02:51:09;100202.22;;;22.86;49.76
56514;BME280;62152;52.078;8.414;2022-08-21T02:52:56;100207.34;;;22.88;49.57
56514;BME280;62152;52.078;8.414;2022-08-21T02:54:41;100195.09;;;22.89;49.71
56514;BME280;62152;52.078;8.414;2022-08-21T02:56:27;100195.09;;;22.89;49.69
56514;BME280;62152;52.078;8.414;2022-08-21T02:58:17;100201.03;;;22.87;49.65
56514;BME280;62152;52.078;8.414;2022-08-21T03:00:07;100200.22;;;22.90;49.56
56514;BME280;62152;52.078;8.414;2022-08-21T03:01:55;100204.16;;;22.89;49.85
56514;BME280;62152;52.078;8.414;2022-08-21T03:03:42;100201.41;;;22.89;49.88
56514;BME280;62152;52.078;8.414;2022-08-21T03:05:33;100200.22;;;22.90;49.88
56514;BME280;62152;52.078;8.414;2022-08-21T03:07:19;100191.13;;;22.90;49.85
56514;BME280;62152;52.078;8.414;2022-08-21T03:09:04;100195.88;;;22.89;49.73
56514;BME280;62152;52.078;8.414;2022-08-21T03:10:51;100193.91;;;22.90;49.81
56514;BME280;62152;52.078;8.414;2022-08-21T03:12:37;100196.66;;;22.90;49.89
56514;BME280;62152;52.078;8.414;2022-08-21T03:14:24;100189.56;;;22.92;50.13
56514;BME280;62152;52.078;8.414;2022-08-21T03:16:10;100194.28;;;22.92;49.85
56514;BME280;62152;52.078;8.414;2022-08-21T03:17:55;100189.16;;;22.90;50.00
56514;BME280;62152;52.078;8.414;2022-08-21T03:19:40;100189.16;;;22.90;49.93
56514;BME280;62152;52.078;8.414;2022-08-21T03:21:26;100195.88;;;22.89;49.88
56514;BME280;62152;52.078;8.414;2022-08-21T03:23:13;100199.44;;;22.90;50.18
56514;BME280;62152;52.078;8.414;2022-08-21T03:24:59;100199.44;;;22.90;50.15
56514;BME280;62152;52.078;8.414;2022-08-21T03:26:45;100193.91;;;22.90;50.08
56514;BME280;62152;52.078;8.414;2022-08-21T03:28:30;100202.97;;;22.90;50.19
56514;BME280;62152;52.078;8.414;2022-08-21T03:30:19;100192.69;;;22.91;49.95
56514;BME280;62152;52.078;8.414;2022-08-21T03:32:06;100196.66;;;22.90;50.13
56514;BME280;62152;52.078;8.414;2022-08-21T03:33:53;100190.34;;;22.89;50.28
56514;BME280;62152;52.078;8.414;2022-08-21T03:35:38;100191.91;;;22.90;50.21
56514;BME280;62152;52.078;8.414;2022-08-21T03:37:24;100195.47;;;22.91;50.00
56514;BME280;62152;52.078;8.414;2022-08-21T03:39:09;100192.31;;;22.89;50.21
56514;BME280;62152;52.078;8.414;2022-08-21T03:40:54;100190.75;;;22.88;50.25
56514;BME280;62152;52.078;8.414;2022-08-21T03:42:40;100190.38;;;22.86;50.45
56514;BME280;62152;52.078;8.414;2022-08-21T03:44:28;100193.91;;;22.86;50.20
56514;BME280;62152;52.078;8.414;2022-08-21T03:46:16;100188.75;;;22.88;50.28
56514;BME280;62152;52.078;8.414;2022-08-21T03:48:03;100193.91;;;22.90;50.18
56514;BME280;62152;52.078;8.414;2022-08-21T03:49:50;100192.72;;;22.87;50.19
56514;BME280;62152;52.078;8.414;2022-08-21T03:51:36;100195.06;;;22.85;50.25
56514;BME280;62152;52.078;8.414;2022-08-21T03:53:21;100197.84;;;22.89;50.35
56514;BME280;62152;52.078;8.414;2022-08-21T03:55:07;100195.09;;;22.89;50.17
56514;BME280;62152;52.078;8.414;2022-08-21T03:56:52;100198.63;;;22.89;50.16
56514;BME280;62152;52.078;8.414;2022-08-21T03:58:37;100198.63;;;22.89;50.30
56514;BME280;62152;52.078;8.414;2022-08-21T04:00:23;100199.44;;;22.90;50.33
56514;BME280;62152;52.078;8.414;2022-08-21T04:02:15;100195.09;;;22.89;50.18
56514;BME280;62152;52.078;8.414;2022-08-21T04:04:03;100203.38;;;22.89;50.20
56514;BME280;62152;52.078;8.414;2022-08-21T04:05:50;100206.56;;;22.87;50.29
56514;BME280;62152;52.078;8.414;2022-08-21T04:07:35;100205.34;;;22.88;50.16
56514;BME280;62152;52.078;8.414;2022-08-21T04:09:20;100209.31;;;22.87;50.32
56514;BME280;62152;52.078;8.414;2022-08-21T04:11:06;100207.34;;;22.88;50.28
56514;BME280;62152;52.078;8.414;2022-08-21T04:12:53;100206.50;;;22.84;50.19
56514;BME280;62152;52.078;8.414;2022-08-21T04:14:38;100210.88;;;22.81;50.30
56514;BME280;62152;52.078;8.414;2022-08-21T04:16:24;100214.81;;;22.84;50.54
56514;BME280;62152;52.078;8.414;2022-08-21T04:18:12;100202.56;;;22.85;50.19
56514;BME280;62152;52.078;8.414;2022-08-21T04:19:57;100206.97;;;22.86;50.34
56514;BME280;62152;52.078;8.414;2022-08-21T04:21:42;100206.97;;;22.86;50.25
56514;BME280;62152;52.078;8.414;2022-08-21T04:23:28;100209.72;;;22.86;50.33
56514;BME280;62152;52.078;8.414;2022-08-21T04:25:15;100210.06;;;22.84;50.29
56514;BME280;62152;52.078;8.414;2022-08-21T04:27:00;100213.63;;;22.85;50.33
56514;BME280;62152;52.078;8.414;2022-08-21T04:28:46;100210.84;;;22.85;50.29
56514;BME280;62152;52.078;8.414;2022-08-21T04:30:32;100225.88;;;22.84;50.33
56514;BME280;62152;52.078;8.414;2022-08-21T04:32:22;100221.91;;;22.85;50.35
56514;BME280;62152;52.078;8.414;2022-08-21T04:34:10;100215.59;;;22.84;50.45
56514;BME280;62152;52.078;8.414;2022-08-21T04:35:55;100216.41;;;22.81;50.48
56514;BME280;62152;52.078;8.414;2022-08-21T04:37:39;100222.72;;;22.82;50.51
56514;BME280;62152;52.078;8.414;2022-08-21T04:39:24;100219.56;;;22.76;50.58
56514;BME280;62152;52.078;8.414;2022-08-21T04:41:10;100220.38;;;22.73;50.85
56514;BME280;62152;52.078;8.414;2022-08-21T04:42:58;100220.38;;;22.73;50.65
56514;BME280;62152;52.078;8.414;2022-08-21T04:44:43;100224.69;;;22.81;50.59
56514;BME280;62152;52.078;8.414;2022-08-21T04:46:28;100225.88;;;22.98;51.37
56514;BME280;62152;52.078;8.414;2022-08-21T04:48:16;100224.66;;;23.10;51.69
56514;BME280;62152;52.078;8.414;2022-08-21T04:50:06;100225.03;;;23.12;51.45
56514;BME280;62152;52.078;8.414;2022-08-21T04:52:08;100229.44;;;23.02;51.17
56514;BME280;62152;52.078;8.414;2022-08-21T04:53:59;100232.19;;;22.91;51.61
56514;BME280;62152;52.078;8.414;2022-08-21T04:55:47;100231.84;;;22.86;51.76
56514;BME280;62152;52.078;8.414;2022-08-21T04:57:34;100240.94;;;22.86;51.71
56514;BME280;62152;52.078;8.414;2022-08-21T04:59:24;100227.84;;;22.83;51.69
56514;BME280;62152;52.078;8.414;2022-08-21T05:01:17;100229.88;;;22.86;51.43
56514;BME280;62152;52.078;8.414;2022-08-21T05:03:09;100233.78;;;22.96;51.32
56514;BME280;62152;52.078;8.414;2022-08-21T05:04:57;100235.78;;;22.99;51.33
56514;BME280;62152;52.078;8.414;2022-08-21T05:06:47;100238.53;;;22.99;51.30
56514;BME280;62152;52.078;8.414;2022-08-21T05:08:36;100232.19;;;22.99;51.26
56514;BME280;62152;52.078;8.414;2022-08-21T05:10:22;100235.78;;;22.99;51.17
56514;BME280;62152;52.078;8.414;2022-08-21T05:12:08;100246.44;;;22.97;51.11
56514;BME280;62152;52.078;8.414;2022-08-21T05:13:53;100246.03;;;23.02;51.04
56514;BME280;62152;52.078;8.414;2022-08-21T05:15:38;100240.88;;;23.04;50.84
56514;BME280;62152;52.078;8.414;2022-08-21T05:17:24;100243.22;;;23.06;51.08
56514;BME280;62152;52.078;8.414;2022-08-21T05:19:09;100240.88;;;23.08;50.98
56514;BME280;62152;52.078;8.414;2022-08-21T05:20:55;100244.44;;;23.08;50.98
56514;BME280;62152;52.078;8.414;2022-08-21T05:22:42;100242.47;;;23.09;50.97
56514;BME280;62152;52.078;8.414;2022-08-21T05:24:28;100236.13;;;23.08;50.84
56514;BME280;62152;52.078;8.414;2022-08-21T05:26:13;100244.81;;;23.10;50.58
56514;BME280;62152;52.078;8.414;2022-08-21T05:27:58;100239.66;;;23.12;50.65
56514;BME280;62152;52.078;8.414;2022-08-21T05:29:43;100242.44;;;23.12;50.73
56514;BME280;62152;52.078;8.414;2022-08-21T05:31:28;100235.31;;;23.11;50.77
56514;BME280;62152;52.078;8.414;2022-08-21T05:33:13;100240.84;;;23.11;50.59
56514;BME280;62152;52.078;8.414;2022-08-21T05:34:58;100237.34;;;22.97;50.60
56514;BME280;62152;52.078;8.414;2022-08-21T05:36:44;100244.03;;;22.85;50.89
56514;BME280;62152;52.078;8.414;2022-08-21T05:38:32;100246.81;;;22.78;50.83
56514;BME280;62152;52.078;8.414;2022-08-21T05:40:17;100250.38;;;22.71;50.92
56514;BME280;62152;52.078;8.414;2022-08-21T05:42:02;100247.63;;;22.67;50.87
56514;BME280;62152;52.078;8.414;2022-08-21T05:43:47;100255.53;;;22.58;51.15
56514;BME280;62152;52.078;8.414;2022-08-21T05:45:33;100255.13;;;22.53;51.35
56514;BME280;62152;52.078;8.414;2022-08-21T05:47:18;100252.75;;;22.55;51.40
56514;BME280;62152;52.078;8.414;2022-08-21T05:49:03;100248.03;;;22.59;51.12
56514;BME280;62152;52.078;8.414;2022-08-21T05:50:50;100251.97;;;22.65;51.11
56514;BME280;62152;52.078;8.414;2022-08-21T05:52:35;100249.59;;;22.63;51.11
56514;BME280;62152;52.078;8.414;2022-08-21T05:54:23;100245.25;;;22.62;51.01
56514;BME280;62152;52.078;8.414;2022-08-21T05:56:09;100253.53;;;22.62;51.12
56514;BME280;62152;52.078;8.414;2022-08-21T05:57:54;100249.59;;;22.63;50.93
56514;BME280;62152;52.078;8.414;2022-08-21T05:59:40;100252.78;;;22.65;51.02
56514;BME280;62152;52.078;8.414;2022-08-21T06:01:25;100249.59;;;22.63;51.08
56514;BME280;62152;52.078;8.414;2022-08-21T06:03:11;100251.16;;;22.64;51.13
56514;BME280;62152;52.078;8.414;2022-08-21T06:04:58;100247.25;;;22.65;51.02
56514;BME280;62152;52.078;8.414;2022-08-21T06:06:43;100250.38;;;22.64;51.26
56514;BME280;62152;52.078;8.414;2022-08-21T06:08:29;100244.06;;;22.63;51.14
56514;BME280;62152;52.078;8.414;2022-08-21T06:10:18;100245.25;;;22.62;51.07
56514;BME280;62152;52.078;8.414;2022-08-21T06:12:04;100242.09;;;22.64;51.22
56514;BME280;62152;52.078;8.414;2022-08-21T06:13:50;100245.63;;;22.64;51.22
56514;BME280;62152;52.078;8.414;2022-08-21T06:15:35;100242.50;;;22.62;51.12
56514;BME280;62152;52.078;8.414;2022-08-21T06:17:20;100242.09;;;22.64;51.10
56514;BME280;62152;52.078;8.414;2022-08-21T06:19:05;100250.38;;;22.71;51.08
56514;BME280;62152;52.078;8.414;2022-08-21T06:20:50;100242.47;;;22.77;50.89
56514;BME280;62152;52.078;8.414;2022-08-21T06:22:36;100240.88;;;22.83;50.76
56514;BME280;62152;52.078;8.414;2022-08-21T06:24:21;100246.81;;;22.92;50.56
56514;BME280;62152;52.078;8.414;2022-08-21T06:26:11;100244.06;;;22.99;50.39
56514;BME280;62152;52.078;8.414;2022-08-21T06:28:01;100247.19;;;23.05;50.24
56514;BME280;62152;52.078;8.414;2022-08-21T06:29:47;100245.63;;;23.07;50.23
56514;BME280;62152;52.078;8.414;2022-08-21T06:31:32;100251.13;;;23.11;50.24
56514;BME280;62152;52.078;8.414;2022-08-21T06:33:17;100244.03;;;23.13;50.19
56514;BME280;62152;52.078;8.414;2022-08-21T06:35:04;100244.41;;;23.15;50.32
56514;BME280;62152;52.078;8.414;2022-08-21T06:36:50;100247.97;;;23.16;50.27
56514;BME280;62152;52.078;8.414;2022-08-21T06:38:35;100245.59;;;23.18;50.38
56514;BME280;62152;52.078;8.414;2022-08-21T06:40:21;100245.59;;;23.18;50.34
56514;BME280;62152;52.078;8.414;2022-08-21T06:42:13;100246.78;;;23.20;50.37
56514;BME280;62152;52.078;8.414;2022-08-21T06:44:00;100247.16;;;23.23;50.22
56514;BME280;62152;52.078;8.414;2022-08-21T06:45:45;100252.69;;;23.23;50.38
56514;BME280;62152;52.078;8.414;2022-08-21T06:47:30;100247.94;;;23.23;50.40
56514;BME280;62152;52.078;8.414;2022-08-21T06:49:15;100246.75;;;23.24;50.33
56514;BME280;62152;52.078;8.414;2022-08-21T06:51:01;100242.78;;;23.25;50.38
56514;BME280;62152;52.078;8.414;2022-08-21T06:52:47;100252.28;;;23.28;50.51
56514;BME280;62152;52.078;8.414;2022-08-21T06:54:32;100245.97;;;23.27;50.50
56514;BME280;62152;52.078;8.414;2022-08-21T06:56:17;100247.53;;;23.28;50.54
56514;BME280;62152;52.078;8.414;2022-08-21T06:58:06;100251.09;;;23.29;50.56
56514;BME280;62152;52.078;8.414;2022-08-21T06:59:51;100251.47;;;23.31;50.39
56514;BME280;62152;52.078;8.414;2022-08-21T07:01:36;100251.47;;;23.31;50.43
56514;BME280;62152;52.078;8.414;2022-08-21T07:03:24;100248.72;;;23.31;50.50
56514;BME280;62152;52.078;8.414;2022-08-21T07:05:11;100250.28;;;23.32;50.58
56514;BME280;62152;52.078;8.414;2022-08-21T07:06:56;100239.22;;;23.32;50.63
56514;BME280;62152;52.078;8.414;2022-08-21T07:08:42;100242.78;;;23.32;50.59
56514;BME280;62152;52.078;8.414;2022-08-21T07:10:27;100236.84;;;23.34;50.55
56514;BME280;62152;52.078;8.414;2022-08-21T07:12:12;100239.63;;;23.34;50.49
56514;BME280;62152;52.078;8.414;2022-08-21T07:14:00;100236.84;;;23.34;50.66
56514;BME280;62152;52.078;8.414;2022-08-21T07:15:45;100244.75;;;23.35;50.48
56514;BME280;62152;52.078;8.414;2022-08-21T07:17:30;100237.22;;;23.36;50.53
56514;BME280;62152;52.078;8.414;2022-08-21T07:19:16;100237.22;;;23.36;50.68
56514;BME280;62152;52.078;8.414;2022-08-21T07:21:02;100238.81;;;23.37;50.52
56514;BME280;62152;52.078;8.414;2022-08-21T07:22:49;100241.16;;;23.38;50.68
56514;BME280;62152;52.078;8.414;2022-08-21T07:24:35;100240.38;;;23.38;50.69
56514;BME280;62152;52.078;8.414;2022-08-21T07:26:23;100237.63;;;23.38;50.76
56514;BME280;62152;52.078;8.414;2022-08-21T07:28:08;100245.50;;;23.39;50.72
56514;BME280;62152;52.078;8.414;2022-08-21T07:29:56;100235.22;;;23.40;50.59
56514;BME280;62152;52.078;8.414;2022-08-21T07:31:42;100229.69;;;23.40;50.74
56514;BME280;62152;52.078;8.414;2022-08-21T07:33:30;100240.38;;;23.41;50.59
56514;BME280;62152;52.078;8.414;2022-08-21T07:35:18;100241.56;;;23.40;50.68
56514;BME280;62152;52.078;8.414;2022-08-21T07:37:06;100234.84;;;23.41;50.56
56514;BME280;62152;52.078;8.414;2022-08-21T07:38:51;100235.63;;;23.42;50.74
56514;BME280;62152;52.078;8.414;2022-08-21T07:40:36;100241.97;;;23.42;50.56
56514;BME280;62152;52.078;8.414;2022-08-21T07:42:22;100239.97;;;23.43;50.65
56514;BME280;62152;52.078;8.414;2022-08-21T07:44:07;100239.97;;;23.43;50.66
56514;BME280;62152;52.078;8.414;2022-08-21T07:45:55;100228.91;;;23.43;50.78
56514;BME280;62152;52.078;8.414;2022-08-21T07:47:40;100226.91;;;23.43;50.60
56514;BME280;62152;52.078;8.414;2022-08-21T07:49:25;100238.78;;;23.44;50.84
56514;BME280;62152;52.078;8.414;2022-08-21T07:51:13;100235.59;;;23.45;50.60
56514;BME280;62152;52.078;8.414;2022-08-21T07:52:59;100227.72;;;23.44;50.74
56514;BME280;62152;52.078;8.414;2022-08-21T07:54:45;100228.09;;;23.46;50.68
56514;BME280;62152;52.078;8.414;2022-08-21T07:56:31;100228.50;;;23.44;50.86
56514;BME280;62152;52.078;8.414;2022-08-21T07:58:16;100232.06;;;23.45;50.73
56514;BME280;62152;52.078;8.414;2022-08-21T08:00:02;100235.22;;;23.47;50.84
56514;BME280;62152;52.078;8.414;2022-08-21T08:01:56;100236.38;;;23.46;50.67
56514;BME280;62152;52.078;8.414;2022-08-21T08:03:42;100233.25;;;23.47;50.64
56514;BME280;62152;52.078;8.414;2022-08-21T08:05:29;100236.81;;;23.48;50.75
56514;BME280;62152;52.078;8.414;2022-08-21T08:07:16;100243.91;;;23.49;50.73
56514;BME280;62152;52.078;8.414;2022-08-21T08:09:02;100236.81;;;23.48;50.87
56514;BME280;62152;52.078;8.414;2022-08-21T08:10:47;100236.00;;;23.47;50.94
56514;BME280;62152;52.078;8.414;2022-08-21T08:12:33;100235.59;;;23.49;50.88
56514;BME280;62152;52.078;8.414;2022-08-21T08:14:18;100232.84;;;23.49;50.95
56514;BME280;62152;52.078;8.414;2022-08-21T08:16:04;100238.38;;;23.49;50.75
56514;BME280;62152;52.078;8.414;2022-08-21T08:17:53;100237.19;;;23.50;50.92
56514;BME280;62152;52.078;8.414;2022-08-21T08:19:39;100247.06;;;23.51;50.90
56514;BME280;62152;52.078;8.414;2022-08-21T08:21:24;100241.50;;;23.51;50.80
56514;BME280;62152;52.078;8.414;2022-08-21T08:23:10;100238.75;;;23.51;50.94
56514;BME280;62152;52.078;8.414;2022-08-21T08:24:55;100238.75;;;23.51;50.68
56514;BME280;62152;52.078;8.414;2022-08-21T08:26:41;100239.53;;;23.52;50.90
56514;BME280;62152;52.078;8.414;2022-08-21T08:28:26;100235.97;;;23.51;50.92
56514;BME280;62152;52.078;8.414;2022-08-21T08:30:16;100237.56;;;23.52;50.84
56514;BME280;62152;52.078;8.414;2022-08-21T08:32:04;100234.78;;;23.52;50.74
56514;BME280;62152;52.078;8.414;2022-08-21T08:33:53;100237.56;;;23.52;50.73
56514;BME280;62152;52.078;8.414;2022-08-21T08:35:38;100229.25;;;23.52;51.00
56514;BME280;62152;52.078;8.414;2022-08-21T08:37:24;100224.50;;;23.53;50.91
56514;BME280;62152;52.078;8.414;2022-08-21T08:39:09;100222.50;;;23.53;50.76
56514;BME280;62152;52.078;8.414;2022-08-21T08:41:01;100229.66;;;23.54;50.94
56514;BME280;62152;52.078;8.414;2022-08-21T08:42:56;100224.13;;;23.54;50.91
56514;BME280;62152;52.078;8.414;2022-08-21T08:44:42;100217.38;;;23.55;50.76
56514;BME280;62152;52.078;8.414;2022-08-21T08:46:36;100213.03;;;23.54;50.81
56514;BME280;62152;52.078;8.414;2022-08-21T08:48:46;100215.81;;;23.54;50.79
56514;BME280;62152;52.078;8.414;2022-08-21T08:50:43;100213.03;;;23.54;50.78
56514;BME280;62152;52.078;8.414;2022-08-21T08:52:36;100220.94;;;23.56;50.93
56514;BME280;62152;52.078;8.414;2022-08-21T08:54:31;100209.09;;;23.55;50.71
56514;BME280;62152;52.078;8.414;2022-08-21T08:56:35;100214.63;;;23.55;50.75
56514;BME280;62152;52.078;8.414;2022-08-21T08:58:23;100216.19;;;23.56;50.75
56514;BME280;62152;52.078;8.414;2022-08-21T09:00:14;100215.41;;;23.56;50.77
56514;BME280;62152;52.078;8.414;2022-08-21T09:02:02;100210.66;;;23.56;50.74
56514;BME280;62152;52.078;8.414;2022-08-21T09:03:50;100211.44;;;23.57;50.90
56514;BME280;62152;52.078;8.414;2022-08-21T09:05:45;100212.22;;;23.57;50.91
56514;BME280;62152;52.078;8.414;2022-08-21T09:07:42;100210.25;;;23.58;50.74
56514;BME280;62152;52.078;8.414;2022-08-21T09:09:52;100213.00;;;23.58;50.70
56514;BME280;62152;52.078;8.414;2022-08-21T09:11:59;100209.06;;;23.59;50.90
56514;BME280;62152;52.078;8.414;2022-08-21T09:13:59;100208.66;;;23.57;50.92
56514;BME280;62152;52.078;8.414;2022-08-21T09:16:04;100215.00;;;23.57;50.77
56514;BME280;62152;52.078;8.414;2022-08-21T09:18:18;100205.50;;;23.58;50.79
56514;BME280;62152;52.078;8.414;2022-08-21T09:20:27;100201.53;;;23.59;50.74